Latest Coastal Weather Observations for Gove Airport

IDD60701

Issued at 8:21 pm CST Saturday 22 February 2020 (issued every 10 minutes, with the page automatically refreshed every 10 minutes)

About coastal observations | Map of coastal stations | Coastal observations for NT | Marine services | Other Formats
Station Details ID: 014508 Name: GOVE AIRPORT Lat: -12.27 Lon: 136.82 Height: 51.6 m
Data from the previous 72 hours. | See also: Recent months at Gove Airport
Date/Time
CST
Wind Sea
Height
m
Swell Vis
km
Cloud Weather Temp
°C
Press
hPa
Rain since
9am
mm
Dir  Spd
kts
Gust
kts
Height
m
Period
s
Dir
22/08:02pm WSW 4 5 - - - - 10 Partly cloudy - 26.3 1004.1 2.8
22/08:00pm WSW 4 7 - - - - 10 Partly cloudy - 26.3 1004.1 2.8
22/07:44pm CALM 0 5 - - - - 6 Partly cloudy - 26.3 1004.2 2.2
22/07:33pm CALM 0 0 - - - - 7 Partly cloudy - 26.4 1004.1 2.0
22/07:30pm SSW 1 4 - - - - 7 Partly cloudy - 26.5 1004.2 2.0
22/07:15pm SW 6 9 - - - - 6 Partly cloudy - 26.8 1003.9 1.4
22/07:00pm WSW 7 10 - - - - 10 Partly cloudy - 27.2 1003.7 1.2
22/06:30pm WSW 9 13 - - - - 10 Partly cloudy - 27.5 1003.5 1.2
22/06:00pm W 7 13 - - - - 10 Cloudy - 28.2 1003.2 1.2
22/05:30pm SW 7 9 - - - - 10 Partly cloudy - 28.8 1002.4 1.2
22/05:00pm SW 7 9 - - - - 10 Partly cloudy - 28.9 1002.5 1.2
22/04:30pm SW 8 12 - - - - 10 Partly cloudy - 29.2 1002.3 1.2
22/04:00pm SSW 7 12 - - - - 10 Partly cloudy - 29.1 1002.2 1.2
22/03:30pm S 6 10 - - - - 10 Partly cloudy - 28.9 1002.3 1.2
22/03:00pm S 11 15 - - - - 10 Cloudy - 29.2 1002.6 1.2
22/02:30pm SSW 9 13 - - - - 10 Partly cloudy - 28.4 1003.2 1.2
22/02:00pm SW 11 18 - - - - 10 Partly cloudy - 27.9 1003.7 1.2
22/01:53pm SW 12 18 - - - - 10 Partly cloudy - 27.6 1003.8 1.2
22/01:30pm SW 10 16 - - - - 10 Partly cloudy - 27.5 1004.1 1.0
22/01:00pm SW 10 14 - - - - 10 Partly cloudy - 26.9 1004.9 1.0
22/12:30pm WSW 8 11 - - - - 10 Partly cloudy - 26.0 1005.3 1.0
22/12:09pm SW 7 10 - - - - 10 Partly cloudy - 25.9 1005.8 1.0
22/12:00pm SW 6 8 - - - - 10 Cloudy - 25.8 1005.9 1.0
22/11:30am WSW 6 8 - - - - 10 Mostly clear - 25.3 1006.0 1.0
22/11:00am WSW 7 9 - - - - 10 Mostly clear Rain 24.9 1006.0 1.0
22/10:30am SSW 7 10 - - - - 10 Mostly clear - 25.0 1006.3 0.8
22/10:00am SW 9 15 - - - - 10 Partly cloudy Rain 25.1 1006.5 0.2
22/09:30am SW 8 13 - - - - 10 Mostly clear - 25.7 1006.9 0.0
22/09:00am SSW 8 12 - - - - 10 Mostly cloudy - 25.5 1006.6 8.0
22/08:30am SSW 9 14 - - - - 10 Partly cloudy - 25.4 1006.7 8.0
22/08:10am SSW 8 12 - - - - 10 Partly cloudy - 25.4 1006.4 8.0
22/08:00am SSW 8 13 - - - - 10 Partly cloudy - 24.9 1006.3 8.0
22/07:30am S 7 10 - - - - 10 Partly cloudy - 24.5 1005.5 8.0
22/07:06am S 10 17 - - - - 7 Partly cloudy - 24.2 1005.6 8.0
22/07:00am SSE 12 20 - - - - 7 Partly cloudy - 24.2 1005.7 8.0
22/06:30am SW 5 7 - - - - 10 Partly cloudy - 24.5 1004.9 7.6
22/06:00am SSW 4 6 - - - - 7 Cloudy Rain 24.4 1004.6 7.0
22/05:30am SSW 6 9 - - - - 10 Partly cloudy - 24.3 1005.0 6.2
22/05:06am S 5 7 - - - - 10 Partly cloudy - 24.4 1004.9 5.8
22/05:00am S 5 8 - - - - 8 Partly cloudy - 24.5 1004.9 5.8
22/04:46am SSW 6 12 - - - - 6 Partly cloudy - 24.9 1005.0 5.6
22/04:30am WSW 4 6 - - - - 10 Partly cloudy - 24.9 1004.6 5.0
22/04:00am W 4 5 - - - - 10 Partly cloudy - 25.1 1004.4 4.8
22/03:30am WSW 5 7 - - - - 10 Partly cloudy - 25.1 1004.7 4.0
22/03:00am WSW 5 7 - - - - 10 Cloudy Rain 25.2 1005.0 3.2
22/02:30am WSW 5 7 - - - - 10 Partly cloudy - 25.3 1005.4 2.8
22/02:00am W 5 8 - - - - 10 Partly cloudy - 25.4 1005.6 2.0
22/01:30am WSW 5 7 - - - - 10 Partly cloudy - 25.7 1005.8 1.4
22/01:00am WSW 6 9 - - - - 10 - - 25.6 1006.0 1.4
22/12:30am WSW 7 9 - - - - 10 Partly cloudy - 25.6 1006.3 1.4
22/12:00am WSW 5 6 - - - - 10 Cloudy - 25.6 1006.6 1.4
 
Date/Time
CST
Wind Sea
Height
m
Swell Vis
km
Cloud Weather Temp
°C
Press
hPa
Rain since
9am
mm
Dir  Spd
kts
Gust
kts
Height
m
Period
s
Dir
21/11:30pm W 5 6 - - - - 10 - - 25.6 1006.8 1.4
21/11:00pm W 5 7 - - - - 10 - - 25.7 1007.0 1.4
21/10:30pm W 4 7 - - - - 10 - - 25.8 1007.0 1.4
21/10:00pm W 4 6 - - - - 10 - - 25.9 1006.8 1.4
21/09:30pm W 4 7 - - - - 10 - - 26.1 1006.4 1.4
21/09:00pm WSW 5 7 - - - - 10 Partly cloudy - 26.3 1006.1 1.4
21/08:30pm W 4 6 - - - - 10 Partly cloudy - 26.4 1005.9 1.4
21/08:00pm W 4 6 - - - - 10 Partly cloudy - 26.5 1005.7 1.4
21/07:30pm SW 3 4 - - - - 10 Partly cloudy - 26.9 1005.6 1.4
21/07:00pm WSW 5 7 - - - - 10 Partly cloudy - 27.1 1005.3 1.4
21/06:30pm WSW 6 8 - - - - 10 - - 27.4 1005.0 1.4
21/06:00pm SSW 4 6 - - - - 10 Cloudy - 27.7 1004.6 1.4
21/05:30pm S 4 6 - - - - 10 - - 27.9 1004.3 1.4
21/05:00pm S 4 5 - - - - 10 - - 27.8 1004.1 1.4
21/04:30pm S 5 8 - - - - 10 Partly cloudy - 27.8 1004.0 1.4
21/04:00pm S 6 7 - - - - 10 Partly cloudy - 27.7 1004.0 1.4
21/03:30pm S 6 9 - - - - 10 Partly cloudy - 27.6 1004.1 1.4
21/03:00pm S 8 11 - - - - 10 Mostly cloudy - 27.4 1004.5 1.4
21/02:30pm S 8 11 - - - - 10 Mostly clear - 27.3 1004.5 1.4
21/02:00pm S 7 11 - - - - 10 Mostly clear - 27.0 1004.8 1.4
21/01:30pm S 9 13 - - - - 10 Mostly clear - 26.3 1005.0 1.4
21/01:00pm S 9 13 - - - - 10 Mostly clear - 25.9 1005.9 1.4
21/12:30pm S 14 21 - - - - 6 Mostly clear - 26.5 1006.7 1.2
21/12:00pm SSW 11 19 - - - - 6 Cloudy Rain 27.9 1006.8 0.8
21/11:30am SW 8 13 - - - - 10 Partly cloudy - 30.7 1006.6 0.0
21/11:00am SW 8 12 - - - - 10 Partly cloudy - 30.5 1006.9 0.0
21/10:30am WSW 8 11 - - - - 10 Partly cloudy - 29.8 1007.0 0.0
21/10:00am WSW 6 9 - - - - 10 Mostly clear - 29.2 1007.4 0.0
21/09:30am SW 5 8 - - - - 10 Mostly clear - 29.0 1007.3 0.0
21/09:00am SW 5 7 - - - - 10 Mostly clear - 28.1 1007.0 61.4
21/08:30am SW 5 7 - - - - 10 - - 26.9 1006.6 61.4
21/08:00am WSW 6 8 - - - - 10 - - 26.2 1006.2 61.4
21/07:30am WSW 5 6 - - - - 10 - - 25.6 1005.9 61.4
21/07:00am WSW 6 7 - - - - 10 - - 25.0 1005.5 61.4
21/06:30am W 4 6 - - - - 10 - - 24.8 1005.5 61.4
21/06:00am W 4 6 - - - - 10 - - 25.0 1005.3 61.4
21/05:30am W 5 6 - - - - 10 - - 25.1 1004.8 61.4
21/05:00am WSW 5 8 - - - - 10 - - 25.3 1004.8 61.4
21/04:30am WSW 5 7 - - - - 10 Partly cloudy - 25.5 1004.8 61.4
21/04:00am WSW 6 7 - - - - 10 - - 25.5 1004.8 61.4
21/03:30am WSW 4 5 - - - - 10 - - 25.6 1004.9 61.4
21/03:00am SW 6 8 - - - - 10 Partly cloudy - 25.6 1005.1 61.4
21/02:30am WSW 4 6 - - - - 10 Cloudy - 25.7 1005.4 61.4
21/02:00am WSW 5 6 - - - - 10 Cloudy - 25.8 1005.8 61.4
21/01:30am WSW 3 4 - - - - 10 Cloudy - 25.8 1006.4 61.4
21/01:00am WSW 5 5 - - - - 10 Cloudy - 25.7 1006.8 61.4
21/12:30am WSW 1 4 - - - - 10 Cloudy - 25.4 1006.8 61.4
21/12:00am W 3 4 - - - - 10 Cloudy - 25.5 1007.4 61.4
 
Date/Time
CST
Wind Sea
Height
m
Swell Vis
km
Cloud Weather Temp
°C
Press
hPa
Rain since
9am
mm
Dir  Spd
kts
Gust
kts
Height
m
Period
s
Dir
20/11:30pm W 4 5 - - - - 10 - - 25.5 1007.8 61.4
20/11:00pm WNW 4 5 - - - - 10 - - 25.3 1007.9 61.4
20/10:30pm WNW 5 6 - - - - 10 - - 25.0 1007.5 61.4
20/10:00pm W 5 6 - - - - 10 Partly cloudy - 24.9 1007.2 61.4
20/09:30pm WSW 5 6 - - - - 10 - - 24.8 1006.6 61.4
20/09:00pm WSW 6 9 - - - - 10 Cloudy - 24.8 1006.1 61.4
20/08:30pm WSW 7 9 - - - - 10 - - 24.6 1006.0 61.4
20/08:00pm W 4 6 - - - - 10 - - 24.5 1005.8 61.4
20/07:30pm W 4 6 - - - - 10 - - 24.5 1005.4 61.4
20/07:00pm WSW 6 8 - - - - 10 - - 24.8 1005.0 61.4
20/06:30pm W 6 8 - - - - 10 - - 25.1 1004.9 61.4
20/06:00pm WNW 5 7 - - - - 10 Mostly cloudy Recent precip. 24.9 1004.9 61.4
20/05:30pm NW 7 9 - - - - 10 - - 24.8 1005.0 61.4
20/05:00pm NNW 7 9 - - - - 10 Partly cloudy - 24.8 1004.9 61.0
20/04:30pm NNW 5 5 - - - - 10 Cloudy - 24.7 1004.3 60.8
20/04:00pm WNW 4 6 - - - - 10 - - 24.5 1004.8 60.0
20/03:30pm WNW 6 8 - - - - 10 Mostly clear - 24.7 1005.0 59.8
20/03:00pm NW 8 11 - - - - 10 Cloudy Recent precip. 24.6 1005.3 59.6
20/02:30pm NW 9 11 - - - - 6 Partly cloudy - 24.9 1005.7 59.0
20/02:00pm E 6 15 - - - - 2 Partly cloudy Thunderstorm 25.2 1006.3 36.2
20/01:30pm NNW 8 11 - - - - 10 Partly cloudy - 25.2 1005.8 35.2
20/01:28pm NNW 8 11 - - - - 10 Partly cloudy - 25.1 1005.9 35.2
20/01:00pm W 5 9 - - - - 0.1 Mostly clear Showers 25.3 1006.8 22.4
20/12:50pm N 8 11 - - - - 1 Mostly clear Showers 27.0 1006.7 0.0
20/12:30pm N 10 14 - - - - 5 Mostly clear - 26.9 1006.3 0.0
20/12:00pm ENE 10 13 - - - - 9 Cloudy - 29.1 1006.5 0.0
20/11:30am SW 6 9 - - - - 9 Partly cloudy - 32.1 1006.5 0.0
20/11:00am WSW 5 9 - - - - 10 Partly cloudy - 31.5 1006.8 0.0
20/10:30am WNW 5 8 - - - - 10 Mostly clear - 31.3 1006.6 0.0
20/10:00am WSW 5 8 - - - - 10 Mostly clear - 30.2 1007.0 0.0
20/09:30am SW 5 7 - - - - 10 Mostly clear - 29.8 1007.3 0.0
20/09:00am WSW 6 7 - - - - 10 Partly cloudy - 29.0 1006.9 71.4
20/08:30am WSW 7 9 - - - - 10 Mostly clear - 28.5 1006.5 71.4
20/08:00am SW 6 7 - - - - 10 - - 27.6 1006.3 71.4
20/07:30am SW 5 7 - - - - 10 - - 26.6 1006.2 71.4
20/07:00am WSW 5 7 - - - - 10 - - 25.7 1006.0 71.4
20/06:30am WSW 4 6 - - - - 10 - - 25.4 1005.8 71.4
20/06:00am SW 4 6 - - - - 10 - - 25.6 1005.2 71.4
20/05:30am SW 3 4 - - - - 10 Partly cloudy - 25.5 1004.9 71.4
20/05:00am CALM 0 0 - - - - 10 - - 25.6 1004.2 71.4
20/04:30am CALM 0 0 - - - - 10 - - 25.5 1003.7 71.4
20/04:00am WSW 3 5 - - - - 10 - - 25.5 1003.5 71.4
20/03:30am WSW 3 5 - - - - 10 Partly cloudy - 25.6 1003.5 71.4
20/03:00am SW 4 5 - - - - 10 - - 25.7 1004.1 71.4
20/02:30am CALM 0 3 - - - - 10 - - 25.6 1004.3 71.4
20/02:00am WSW 4 5 - - - - 10 - - 25.7 1004.8 71.4
20/01:30am WSW 3 4 - - - - 10 - - 25.7 1005.2 71.4
20/01:00am WSW 3 4 - - - - 10 Partly cloudy - 25.9 1005.3 71.4
20/12:30am WSW 4 6 - - - - 10 Partly cloudy - 26.1 1005.9 71.4
20/12:00am SW 4 5 - - - - 10 Mostly clear - 26.2 1006.1 71.4
 
Date/Time
CST
Wind Sea
Height
m
Swell Vis
km
Cloud Weather Temp
°C
Press
hPa
Rain since
9am
mm
Dir  Spd
kts
Gust
kts
Height
m
Period
s
Dir
19/11:30pm WSW 3 4 - - - - 10 - - 26.1 1006.6 71.4
19/11:00pm CALM 0 0 - - - - 10 - - 26.3 1006.8 71.4
19/10:30pm SW 3 5 - - - - 10 - - 26.5 1006.6 71.4
19/10:00pm W 4 5 - - - - 10 - - 26.6 1006.6 71.4
19/09:30pm NW 4 5 - - - - 10 - - 26.8 1006.4 71.4
19/09:00pm NW 5 6 - - - - 10 - - 27.1 1006.2 71.4
19/08:30pm W 5 6 - - - - 10 - - 26.8 1005.9 71.4

Other formats

Comma delimited format used in spreadsheet applications
http://www.bom.gov.au/fwo/IDD60701/IDD60701.94150.axf

JavaScript Object Notation format (JSON) in row-major order
http://www.bom.gov.au/fwo/IDD60701/IDD60701.94150.json

Data quality

Most of these data are generated automatically and are frequently updated. Quality checks on data are not normally performed. It is possible for incorrect values to appear. Refer to information at About Latest Weather Observations and please check the disclaimer before using these data.